Time,TemperatureF,DewpointF,PressureIn,WindDirection,WindDirectionDegrees,WindSpeedMPH,WindSpeedGustMPH,Humidity,HourlyPrecipIn,Conditions,Clouds,dailyrainin,SolarRadiationWatts/m^2,SoftwareType,DateUTC
2013-04-26 00:02:00,34.0,8.0,-100.00,NW,317,27.0,51.0,33,0.00,,,0.00,0.800000,,2013-04-26 08:02:00,
2013-04-26 00:11:00,34.0,8.0,-100.00,NW,317,27.0,51.0,33,0.00,,,0.00,0.800000,,2013-04-26 08:11:00,
2013-04-26 00:21:00,34.0,8.0,-100.00,NW,317,27.0,51.0,33,0.00,,,0.00,0.800000,,2013-04-26 08:21:00,
2013-04-26 00:52:00,33.0,7.0,-100.00,NW,318,26.0,43.0,33,0.00,,,0.00,0.800000,,2013-04-26 08:52:00,
2013-04-26 01:01:00,33.0,7.0,-100.00,NW,318,26.0,43.0,33,0.00,,,0.00,0.800000,,2013-04-26 09:01:00,
2013-04-26 01:11:00,33.0,7.0,-100.00,NW,318,26.0,43.0,33,0.00,,,0.00,0.800000,,2013-04-26 09:11:00,
2013-04-26 01:21:00,33.0,7.0,-100.00,NW,318,26.0,43.0,33,0.00,,,0.00,0.800000,,2013-04-26 09:21:00,
2013-04-26 01:53:00,33.0,5.0,-100.00,NNW,340,9.0,43.0,30,0.00,,,0.00,0.800000,,2013-04-26 09:53:00,
2013-04-26 02:03:00,33.0,5.0,-100.00,NNW,340,9.0,43.0,30,0.00,,,0.00,0.800000,,2013-04-26 10:03:00,
2013-04-26 02:12:00,33.0,5.0,-100.00,NNW,340,9.0,43.0,30,0.00,,,0.00,0.800000,,2013-04-26 10:12:00,
2013-04-26 02:22:00,33.0,5.0,-100.00,NNW,340,9.0,43.0,30,0.00,,,0.00,0.800000,,2013-04-26 10:22:00,
2013-04-26 02:52:00,33.0,5.0,-100.00,South,181,4.0,27.0,29,0.00,,,0.00,0.800000,,2013-04-26 10:52:00,
2013-04-26 03:02:00,33.0,5.0,-100.00,South,181,4.0,27.0,29,0.00,,,0.00,0.800000,,2013-04-26 11:02:00,
2013-04-26 03:11:00,33.0,5.0,-100.00,South,181,4.0,27.0,29,0.00,,,0.00,0.800000,,2013-04-26 11:11:00,
2013-04-26 03:21:00,33.0,5.0,-100.00,South,181,4.0,27.0,29,0.00,,,0.00,0.800000,,2013-04-26 11:21:00,
2013-04-26 03:52:00,32.0,8.0,-100.00,West,265,3.0,9.0,36,0.00,,,0.00,0.800000,,2013-04-26 11:52:00,
2013-04-26 04:01:00,32.0,8.0,-100.00,West,265,3.0,9.0,36,0.00,,,0.00,0.800000,,2013-04-26 12:01:00,
2013-04-26 04:11:00,32.0,8.0,-100.00,West,265,3.0,9.0,36,0.00,,,0.00,0.800000,,2013-04-26 12:11:00,
2013-04-26 04:21:00,32.0,8.0,-100.00,West,265,3.0,9.0,36,0.00,,,0.00,0.800000,,2013-04-26 12:21:00,
2013-04-26 04:52:00,32.0,7.0,-100.00,SSW,204,6.0,9.0,34,0.00,,,0.00,0.800000,,2013-04-26 12:52:00,
2013-04-26 05:01:00,32.0,7.0,-100.00,SSW,204,6.0,9.0,34,0.00,,,0.00,0.800000,,2013-04-26 13:01:00,
2013-04-26 05:11:00,32.0,7.0,-100.00,SSW,204,6.0,9.0,34,0.00,,,0.00,0.800000,,2013-04-26 13:11:00,
2013-04-26 05:21:00,32.0,7.0,-100.00,SSW,204,6.0,9.0,34,0.00,,,0.00,0.800000,,2013-04-26 13:21:00,
2013-04-26 05:52:00,31.0,9.0,-100.00,ESE,115,4.0,10.0,39,0.00,,,0.00,0.800000,,2013-04-26 13:52:00,
2013-04-26 06:01:00,31.0,9.0,-100.00,ESE,115,4.0,10.0,39,0.00,,,0.00,0.800000,,2013-04-26 14:01:00,
2013-04-26 06:11:00,31.0,9.0,-100.00,ESE,115,4.0,10.0,39,0.00,,,0.00,0.800000,,2013-04-26 14:11:00,
2013-04-26 06:21:00,31.0,9.0,-100.00,ESE,115,4.0,10.0,39,0.00,,,0.00,0.800000,,2013-04-26 14:21:00,
2013-04-26 06:52:00,31.0,8.0,-100.00,SSE,162,4.0,10.0,38,0.00,,,0.00,4.600000,,2013-04-26 14:52:00,
2013-04-26 07:01:00,31.0,8.0,-100.00,SSE,162,4.0,10.0,38,0.00,,,0.00,4.600000,,2013-04-26 15:01:00,
2013-04-26 07:11:00,31.0,8.0,-100.00,SSE,162,4.0,10.0,38,0.00,,,0.00,4.600000,,2013-04-26 15:11:00,
2013-04-26 07:21:00,31.0,8.0,-100.00,SSE,162,4.0,10.0,38,0.00,,,0.00,4.600000,,2013-04-26 15:21:00,
2013-04-26 07:53:00,34.0,2.0,-100.00,SSE,161,4.0,15.0,26,0.00,,,0.00,76.400002,,2013-04-26 15:53:00,
2013-04-26 08:03:00,34.0,2.0,-100.00,SSE,161,4.0,15.0,26,0.00,,,0.00,76.400002,,2013-04-26 16:03:00,
2013-04-26 08:12:00,34.0,2.0,-100.00,SSE,161,4.0,15.0,26,0.00,,,0.00,76.400002,,2013-04-26 16:12:00,
2013-04-26 08:23:00,34.0,2.0,-100.00,SSE,161,4.0,15.0,26,0.00,,,0.00,76.400002,,2013-04-26 16:23:00,
2013-04-26 08:52:00,35.0,11.0,-100.00,East,84,4.0,11.0,35,0.00,,,0.00,229.500000,,2013-04-26 16:52:00,
2013-04-26 09:12:00,35.0,11.0,-100.00,East,84,4.0,11.0,35,0.00,,,0.00,229.500000,,2013-04-26 17:12:00,
2013-04-26 09:21:00,35.0,11.0,-100.00,East,84,4.0,11.0,35,0.00,,,0.00,229.500000,,2013-04-26 17:21:00,
2013-04-26 09:52:00,37.0,10.0,-100.00,SE,135,4.0,13.0,32,0.00,,,0.00,385.600006,,2013-04-26 17:52:00,
2013-04-26 10:02:00,37.0,10.0,-100.00,SE,135,4.0,13.0,32,0.00,,,0.00,385.600006,,2013-04-26 18:02:00,
2013-04-26 10:11:00,37.0,10.0,-100.00,SE,135,4.0,13.0,32,0.00,,,0.00,385.600006,,2013-04-26 18:11:00,
2013-04-26 10:22:00,37.0,10.0,-100.00,SE,135,4.0,13.0,32,0.00,,,0.00,385.600006,,2013-04-26 18:22:00,
2013-04-26 10:52:00,38.0,1.0,-100.00,NNW,340,29.0,37.0,20,0.00,,,0.00,530.700012,,2013-04-26 18:52:00,
2013-04-26 11:01:00,38.0,1.0,-100.00,NNW,340,29.0,37.0,20,0.00,,,0.00,530.700012,,2013-04-26 19:01:00,
2013-04-26 11:11:00,38.0,1.0,-100.00,NNW,340,29.0,37.0,20,0.00,,,0.00,530.700012,,2013-04-26 19:11:00,
2013-04-26 11:22:00,38.0,1.0,-100.00,NNW,340,29.0,37.0,20,0.00,,,0.00,530.700012,,2013-04-26 19:22:00,
2013-04-26 11:52:00,40.0,17.0,-100.00,SSW,212,9.0,51.0,39,0.00,,,0.00,650.299988,,2013-04-26 19:52:00,
2013-04-26 12:02:00,40.0,17.0,-100.00,SSW,212,9.0,51.0,39,0.00,,,0.00,650.299988,,2013-04-26 20:02:00,
2013-04-26 12:11:00,40.0,17.0,-100.00,SSW,212,9.0,51.0,39,0.00,,,0.00,650.299988,,2013-04-26 20:11:00,
2013-04-26 12:21:00,40.0,17.0,-100.00,SSW,212,9.0,51.0,39,0.00,,,0.00,650.299988,,2013-04-26 20:21:00,
2013-04-26 12:52:00,40.0,2.0,-100.00,NNW,337,19.0,46.0,20,0.00,,,0.00,710.299988,,2013-04-26 20:52:00,
2013-04-26 13:01:00,40.0,2.0,-100.00,NNW,337,19.0,46.0,20,0.00,,,0.00,710.299988,,2013-04-26 21:01:00,
2013-04-26 13:11:00,40.0,2.0,-100.00,NNW,337,19.0,46.0,20,0.00,,,0.00,710.299988,,2013-04-26 21:11:00,
2013-04-26 13:21:00,40.0,2.0,-100.00,NNW,337,19.0,46.0,20,0.00,,,0.00,710.299988,,2013-04-26 21:21:00,
2013-04-26 13:53:00,40.0,4.0,-100.00,WNW,300,25.0,44.0,22,0.00,,,0.00,507.600006,,2013-04-26 21:53:00,
2013-04-26 14:02:00,40.0,4.0,-100.00,WNW,300,25.0,44.0,22,0.00,,,0.00,507.600006,,2013-04-26 22:02:00,
2013-04-26 14:12:00,40.0,4.0,-100.00,WNW,300,25.0,44.0,22,0.00,,,0.00,507.600006,,2013-04-26 22:12:00,
2013-04-26 14:22:00,40.0,4.0,-100.00,WNW,300,25.0,44.0,22,0.00,,,0.00,507.600006,,2013-04-26 22:22:00,
2013-04-26 14:52:00,42.0,18.0,-100.00,ENE,62,11.0,50.0,38,0.00,,,0.00,740.599976,,2013-04-26 22:52:00,
2013-04-26 15:01:00,42.0,18.0,-100.00,ENE,62,11.0,50.0,38,0.00,,,0.00,740.599976,,2013-04-26 23:01:00,
2013-04-26 15:11:00,42.0,18.0,-100.00,ENE,62,11.0,50.0,38,0.00,,,0.00,740.599976,,2013-04-26 23:11:00,
2013-04-26 15:21:00,42.0,18.0,-100.00,ENE,62,11.0,50.0,38,0.00,,,0.00,740.599976,,2013-04-26 23:21:00,
2013-04-26 15:52:00,42.0,12.0,-100.00,SE,134,10.0,39.0,29,0.00,,,0.00,781.099976,,2013-04-26 23:52:00,
2013-04-26 16:01:00,42.0,12.0,-100.00,SE,134,10.0,39.0,29,0.00,,,0.00,781.099976,,2013-04-27 00:01:00,
2013-04-26 16:11:00,42.0,12.0,-100.00,SE,134,10.0,39.0,29,0.00,,,0.00,781.099976,,2013-04-27 00:11:00,
2013-04-26 16:21:00,42.0,12.0,-100.00,SE,134,10.0,39.0,29,0.00,,,0.00,781.099976,,2013-04-27 00:21:00,
2013-04-26 16:52:00,43.0,12.0,-100.00,ESE,106,6.0,18.0,28,0.00,,,0.00,701.500000,,2013-04-27 00:52:00,
2013-04-26 17:01:00,43.0,12.0,-100.00,ESE,106,6.0,18.0,28,0.00,,,0.00,701.500000,,2013-04-27 01:01:00,
2013-04-26 17:11:00,43.0,12.0,-100.00,ESE,106,6.0,18.0,28,0.00,,,0.00,701.500000,,2013-04-27 01:11:00,
2013-04-26 17:21:00,43.0,12.0,-100.00,ESE,106,6.0,18.0,28,0.00,,,0.00,701.500000,,2013-04-27 01:21:00,
2013-04-26 17:52:00,38.0,7.0,-100.00,NNW,347,21.0,28.0,27,0.00,,,0.00,288.000000,,2013-04-27 01:52:00,
2013-04-26 18:01:00,38.0,7.0,-100.00,NNW,347,21.0,28.0,27,0.00,,,0.00,288.000000,,2013-04-27 02:01:00,
2013-04-26 18:11:00,38.0,7.0,-100.00,NNW,347,21.0,28.0,27,0.00,,,0.00,288.000000,,2013-04-27 02:11:00,
2013-04-26 18:22:00,38.0,7.0,-100.00,NNW,347,21.0,28.0,27,0.00,,,0.00,288.000000,,2013-04-27 02:22:00,
2013-04-26 18:52:00,39.0,13.0,-100.00,NW,320,15.0,39.0,34,0.00,,,0.00,177.600006,,2013-04-27 02:52:00,
2013-04-26 19:02:00,39.0,13.0,-100.00,NW,320,15.0,39.0,34,0.00,,,0.00,177.600006,,2013-04-27 03:02:00,
2013-04-26 19:11:00,39.0,13.0,-100.00,NW,320,15.0,39.0,34,0.00,,,0.00,177.600006,,2013-04-27 03:11:00,
2013-04-26 19:22:00,39.0,13.0,-100.00,NW,320,15.0,39.0,34,0.00,,,0.00,177.600006,,2013-04-27 03:22:00,
2013-04-26 19:53:00,42.0,10.0,-100.00,NNW,332,9.0,36.0,27,0.00,,,0.00,220.000000,,2013-04-27 03:53:00,
2013-04-26 20:02:00,42.0,10.0,-100.00,NNW,332,9.0,36.0,27,0.00,,,0.00,220.000000,,2013-04-27 04:02:00,
2013-04-26 20:12:00,42.0,10.0,-100.00,NNW,332,9.0,36.0,27,0.00,,,0.00,220.000000,,2013-04-27 04:12:00,
2013-04-26 20:22:00,42.0,10.0,-100.00,NNW,332,9.0,36.0,27,0.00,,,0.00,220.000000,,2013-04-27 04:22:00,
2013-04-26 20:53:00,38.0,11.0,-100.00,NW,308,33.0,48.0,31,0.00,,,0.00,273.399994,,2013-04-27 04:53:00,
2013-04-26 21:02:00,38.0,11.0,-100.00,NW,308,33.0,48.0,31,0.00,,,0.00,273.399994,,2013-04-27 05:02:00,
2013-04-26 21:12:00,38.0,11.0,-100.00,NW,308,33.0,48.0,31,0.00,,,0.00,273.399994,,2013-04-27 05:12:00,
2013-04-26 21:22:00,38.0,11.0,-100.00,NW,308,33.0,48.0,31,0.00,,,0.00,273.399994,,2013-04-27 05:22:00,
2013-04-26 21:52:00,37.0,10.0,-100.00,NW,326,23.0,48.0,32,0.00,,,0.00,77.500000,,2013-04-27 05:52:00,
2013-04-26 22:01:00,37.0,10.0,-100.00,NW,326,23.0,48.0,32,0.00,,,0.00,77.500000,,2013-04-27 06:01:00,
2013-04-26 22:12:00,37.0,10.0,-100.00,NW,326,23.0,48.0,32,0.00,,,0.00,77.500000,,2013-04-27 06:12:00,
2013-04-26 22:22:00,37.0,10.0,-100.00,NW,326,23.0,48.0,32,0.00,,,0.00,77.500000,,2013-04-27 06:22:00,
2013-04-26 22:52:00,36.0,11.0,-100.00,NW,308,33.0,51.0,35,0.00,,,0.00,8.800000,,2013-04-27 06:52:00,
2013-04-26 23:01:00,36.0,11.0,-100.00,NW,308,33.0,51.0,35,0.00,,,0.00,8.800000,,2013-04-27 07:01:00,
2013-04-26 23:11:00,36.0,11.0,-100.00,NW,308,33.0,51.0,35,0.00,,,0.00,8.800000,,2013-04-27 07:11:00,
2013-04-26 23:21:00,36.0,11.0,-100.00,NW,308,33.0,51.0,35,0.00,,,0.00,8.800000,,2013-04-27 07:21:00,
2013-04-26 23:52:00,35.0,11.0,-100.00,NNW,330,21.0,53.0,37,0.00,,,0.00,0.800000,,2013-04-27 07:52:00,